createdAt,value
2023-05-20T00:00:35.467Z,80.63
2023-05-20T00:03:02.184Z,81.31
2023-05-20T00:05:28.802Z,80.43
2023-05-20T00:07:55.326Z,81.61
2023-05-20T00:10:21.914Z,81.55
2023-05-20T00:12:48.368Z,80.58
2023-05-20T00:15:15.036Z,82.00
2023-05-20T00:17:41.733Z,82.35
2023-05-20T00:20:08.654Z,82.28
2023-05-20T00:22:35.382Z,82.70
2023-05-20T00:25:01.979Z,83.10
2023-05-20T00:27:28.463Z,83.11
2023-05-20T00:29:55.117Z,82.63
2023-05-20T00:32:21.753Z,83.74
2023-05-20T00:35:01.275Z,83.33
2023-05-20T00:37:28.069Z,83.33
2023-05-20T00:39:55.018Z,83.34
2023-05-20T00:42:22.850Z,83.24
2023-05-20T00:44:50.483Z,82.30
2023-05-20T00:47:19.476Z,82.56
2023-05-20T00:49:49.620Z,82.72
2023-05-20T00:52:19.428Z,83.31
2023-05-20T00:54:46.373Z,83.96
2023-05-20T00:57:13.737Z,84.29
2023-05-20T00:59:41.841Z,84.07
2023-05-20T01:02:10.091Z,84.92
2023-05-20T01:04:37.028Z,85.51
2023-05-20T01:07:05.807Z,85.25
2023-05-20T01:09:33.319Z,84.74
2023-05-20T01:12:10.706Z,84.85
2023-05-20T01:14:46.936Z,84.79
2023-05-20T01:17:17.897Z,84.31
2023-05-20T01:19:49.116Z,83.30
2023-05-20T01:22:16.232Z,85.10
2023-05-20T01:24:44.790Z,85.39
2023-05-20T01:27:13.647Z,85.42
2023-05-20T01:29:43.002Z,85.52
2023-05-20T01:32:22.965Z,85.99
2023-05-20T01:34:52.064Z,84.96
2023-05-20T01:37:19.632Z,85.20
2023-05-20T01:39:47.445Z,85.64
2023-05-20T01:42:16.119Z,86.54
2023-05-20T01:44:43.840Z,85.87
2023-05-20T01:47:10.713Z,85.80
2023-05-20T01:49:37.395Z,85.05
2023-05-20T01:52:04.750Z,85.42
2023-05-20T01:54:31.414Z,86.13
2023-05-20T01:56:58.497Z,85.80
2023-05-20T01:59:25.086Z,86.06
2023-05-20T02:01:51.755Z,85.86
2023-05-20T02:04:19.243Z,85.69
2023-05-20T02:06:46.277Z,85.15
2023-05-20T02:09:13.026Z,85.30
2023-05-20T02:11:39.822Z,86.62
2023-05-20T02:14:06.464Z,85.62
2023-05-20T02:16:33.232Z,85.55
2023-05-20T02:19:00.027Z,85.69
2023-05-20T02:21:26.699Z,86.50
2023-05-20T02:23:53.706Z,86.75
2023-05-20T02:26:20.805Z,87.48
2023-05-20T02:28:50.612Z,87.42
2023-05-20T02:31:17.775Z,87.33
2023-05-20T02:33:45.262Z,85.47
2023-05-20T02:36:59.334Z,86.17
2023-05-20T02:39:26.039Z,86.21
2023-05-20T02:41:52.578Z,87.48
2023-05-20T02:44:19.180Z,87.44
2023-05-20T02:46:45.871Z,87.07
2023-05-20T02:49:12.488Z,87.57
2023-05-20T02:51:39.923Z,87.14
2023-05-20T02:54:07.002Z,87.25
2023-05-20T02:56:34.327Z,87.24
2023-05-20T02:59:01.795Z,87.46
2023-05-20T03:01:29.610Z,87.45
2023-05-20T03:03:56.254Z,87.53
2023-05-20T03:06:23.006Z,87.01
2023-05-20T03:08:49.757Z,87.49
2023-05-20T03:11:16.565Z,87.68
2023-05-20T03:13:43.185Z,87.15
2023-05-20T03:16:10.409Z,86.67
2023-05-20T03:18:37.358Z,86.91
2023-05-20T03:21:04.902Z,86.36
2023-05-20T03:23:31.477Z,87.53
2023-05-20T03:25:58.061Z,86.34
2023-05-20T03:28:24.613Z,86.41
2023-05-20T03:30:51.155Z,86.43
2023-05-20T03:33:17.779Z,86.30
2023-05-20T03:35:44.322Z,86.59
2023-05-20T03:38:10.923Z,85.75
2023-05-20T03:40:38.822Z,84.63
2023-05-20T03:43:05.730Z,84.47
2023-05-20T03:45:34.573Z,86.41
2023-05-20T03:48:07.102Z,85.03
2023-05-20T03:50:35.454Z,85.41
2023-05-20T03:53:02.257Z,85.36
2023-05-20T03:55:35.485Z,85.43
2023-05-20T03:58:02.782Z,84.76
2023-05-20T04:00:31.511Z,85.01
2023-05-20T04:02:58.727Z,84.20
2023-05-20T04:05:25.371Z,83.98
2023-05-20T04:07:52.056Z,84.31
2023-05-20T04:10:20.996Z,83.04
2023-05-20T04:12:47.738Z,80.91
2023-05-20T04:15:14.730Z,79.15
2023-05-20T04:18:08.192Z,74.24
2023-05-20T04:20:35.954Z,74.19
2023-05-20T04:23:02.618Z,72.88
2023-05-20T04:25:29.046Z,68.27
2023-05-20T04:27:57.631Z,66.88
2023-05-20T04:30:24.493Z,64.43
2023-05-20T04:32:51.297Z,65.55
2023-05-20T04:35:18.309Z,63.42
2023-05-20T04:37:49.601Z,60.92
2023-05-20T04:40:17.142Z,60.34
2023-05-20T04:42:45.003Z,59.74
2023-05-20T04:45:13.714Z,59.44
2023-05-20T04:47:41.863Z,60.26
2023-05-20T04:50:10.839Z,58.86
2023-05-20T04:52:45.887Z,60.16
2023-05-20T04:55:13.270Z,55.35
2023-05-20T04:57:41.812Z,57.86
2023-05-20T05:00:10.770Z,57.75
2023-05-20T05:02:38.352Z,56.54
2023-05-20T05:05:05.775Z,58.53
2023-05-20T05:07:32.524Z,55.17
2023-05-20T05:09:59.141Z,52.01
2023-05-20T05:12:27.697Z,50.81
2023-05-20T05:14:54.217Z,50.43
2023-05-20T05:17:20.923Z,49.36
2023-05-20T05:19:47.545Z,49.73
2023-05-20T05:22:14.125Z,47.44
2023-05-20T05:24:40.671Z,49.26
2023-05-20T05:27:07.235Z,47.30
2023-05-20T05:29:34.193Z,50.47
2023-05-20T05:32:01.833Z,48.68
2023-05-20T05:34:28.440Z,47.60
2023-05-20T05:36:55.066Z,51.96
2023-05-20T05:39:21.764Z,48.58
2023-05-20T05:41:48.365Z,50.69
2023-05-20T05:44:15.604Z,51.14
2023-05-20T05:46:42.470Z,50.98
2023-05-20T05:49:09.149Z,49.92
2023-05-20T05:51:38.256Z,51.77
2023-05-20T05:54:05.739Z,48.62
2023-05-20T05:56:32.394Z,48.93
2023-05-20T05:58:58.965Z,52.63
2023-05-20T06:01:25.661Z,50.31
2023-05-20T06:03:52.471Z,48.81
2023-05-20T06:06:19.912Z,49.74
2023-05-20T06:08:48.095Z,50.90
2023-05-20T06:11:15.405Z,52.35
2023-05-20T06:13:42.319Z,52.24
2023-05-20T06:16:09.039Z,51.75
2023-05-20T06:18:35.678Z,55.57
2023-05-20T06:21:04.779Z,53.09
2023-05-20T06:23:31.701Z,52.54
2023-05-20T06:26:01.151Z,53.12
2023-05-20T06:28:29.567Z,57.18
2023-05-20T06:30:57.522Z,55.96
2023-05-20T06:33:27.401Z,56.17
2023-05-20T06:35:58.359Z,53.98
2023-05-20T06:38:25.360Z,52.83
2023-05-20T06:40:51.968Z,54.52
2023-05-20T06:43:18.858Z,52.28
2023-05-20T06:45:52.288Z,52.63
2023-05-20T06:48:33.276Z,54.44
2023-05-20T06:51:00.421Z,54.08
2023-05-20T06:53:27.643Z,51.60
2023-05-20T06:55:55.965Z,53.46
2023-05-20T06:58:23.209Z,54.66
2023-05-20T07:00:49.833Z,56.65
2023-05-20T07:03:16.965Z,56.33
2023-05-20T07:05:44.701Z,55.81
2023-05-20T07:08:11.915Z,54.58
2023-05-20T07:10:38.686Z,54.62
2023-05-20T07:13:05.517Z,56.63
2023-05-20T07:15:32.271Z,53.92
2023-05-20T07:17:59.341Z,53.69
2023-05-20T07:20:26.327Z,53.77
2023-05-20T07:22:53.290Z,52.63
2023-05-20T07:25:40.822Z,53.63
2023-05-20T07:28:07.759Z,54.05
2023-05-20T07:30:34.346Z,54.00
2023-05-20T07:33:21.217Z,53.80
2023-05-20T07:35:48.925Z,54.67
2023-05-20T07:38:15.665Z,53.28
2023-05-20T07:40:43.524Z,53.63
2023-05-20T07:43:10.220Z,51.77
2023-05-20T07:45:38.016Z,52.96
2023-05-20T07:48:06.381Z,51.94
2023-05-20T07:50:34.198Z,51.72
2023-05-20T07:53:01.160Z,52.83
2023-05-20T07:55:30.159Z,52.82
2023-05-20T07:57:57.181Z,54.47
2023-05-20T08:00:24.831Z,53.61
2023-05-20T08:02:52.012Z,53.11
2023-05-20T08:05:25.534Z,53.24
2023-05-20T08:07:52.267Z,53.18
2023-05-20T08:10:21.110Z,52.42
2023-05-20T08:12:48.017Z,52.99
2023-05-20T08:15:14.749Z,51.38
2023-05-20T08:17:41.544Z,52.20
2023-05-20T08:20:09.904Z,52.37
2023-05-20T08:22:37.570Z,52.71
2023-05-20T08:25:08.063Z,52.67
2023-05-20T08:27:36.162Z,51.76
2023-05-20T08:30:05.054Z,52.09
2023-05-20T08:32:31.711Z,51.32
2023-05-20T08:35:02.858Z,51.41
2023-05-20T08:37:30.009Z,51.21
2023-05-20T08:39:56.638Z,50.31
2023-05-20T08:42:24.736Z,49.04
2023-05-20T08:44:54.316Z,49.78
2023-05-20T08:47:22.043Z,48.07
2023-05-20T08:49:49.475Z,48.49
2023-05-20T08:52:18.112Z,49.12
2023-05-20T08:54:48.020Z,49.76
2023-05-20T08:57:14.674Z,49.72
2023-05-20T08:59:46.824Z,47.47
2023-05-20T09:02:14.290Z,48.65
2023-05-20T09:04:41.131Z,47.95
2023-05-20T09:07:07.742Z,47.16
2023-05-20T09:09:35.247Z,47.51
2023-05-20T09:12:03.243Z,48.36
2023-05-20T09:14:31.022Z,48.64
2023-05-20T09:16:57.742Z,48.82
2023-05-20T09:19:24.785Z,48.04
2023-05-20T09:21:54.097Z,47.61
2023-05-20T09:24:24.253Z,47.69
2023-05-20T09:26:51.328Z,49.04
2023-05-20T09:29:19.656Z,48.73
2023-05-20T09:31:46.648Z,48.89
2023-05-20T09:34:13.793Z,47.72
2023-05-20T09:36:41.699Z,47.10
2023-05-20T09:39:12.760Z,46.47
2023-05-20T09:41:47.409Z,47.11
2023-05-20T09:44:16.331Z,47.14
2023-05-20T09:46:45.901Z,48.05
2023-05-20T09:49:13.135Z,48.85
2023-05-20T09:51:41.908Z,49.06
2023-05-20T09:54:09.424Z,47.35
2023-05-20T09:56:36.859Z,48.18
2023-05-20T09:59:05.321Z,48.02
2023-05-20T10:01:31.954Z,48.76
2023-05-20T10:03:59.914Z,49.74
2023-05-20T10:06:43.574Z,48.92
2023-05-20T10:09:23.364Z,48.33
2023-05-20T10:12:12.865Z,47.41
2023-05-20T10:15:11.580Z,47.13
2023-05-20T10:17:47.548Z,46.41
2023-05-20T10:20:14.318Z,46.52
2023-05-20T10:22:41.093Z,46.91
2023-05-20T10:25:13.129Z,47.12
2023-05-20T10:27:46.938Z,47.38
2023-05-20T10:30:21.286Z,46.46
2023-05-20T10:32:57.468Z,46.66
2023-05-20T10:35:27.628Z,47.35
2023-05-20T10:38:06.257Z,48.86
2023-05-20T10:40:33.106Z,47.08
2023-05-20T10:43:09.784Z,48.19
2023-05-20T10:45:54.898Z,47.88
2023-05-20T10:48:33.016Z,47.97
2023-05-20T10:51:04.284Z,47.54
2023-05-20T10:53:39.713Z,47.27
2023-05-20T10:56:06.867Z,46.86
2023-05-20T10:58:38.673Z,45.97
2023-05-20T11:01:06.301Z,46.05
2023-05-20T11:03:50.309Z,46.34
2023-05-20T11:06:19.065Z,46.80
2023-05-20T11:08:46.636Z,45.75
2023-05-20T11:11:14.995Z,45.69
2023-05-20T11:13:42.392Z,45.86
2023-05-20T11:16:09.466Z,47.04
2023-05-20T11:18:36.524Z,46.56
2023-05-20T11:21:04.031Z,46.49
2023-05-20T11:23:30.964Z,46.38
2023-05-20T11:25:57.947Z,45.38
2023-05-20T11:28:25.170Z,44.85
2023-05-20T11:30:52.803Z,44.80
2023-05-20T11:33:19.806Z,44.60
2023-05-20T11:35:47.291Z,44.77
2023-05-20T11:38:14.254Z,42.57
2023-05-20T11:40:56.752Z,42.44
2023-05-20T11:43:24.249Z,41.68
2023-05-20T11:45:56.095Z,41.65
2023-05-20T11:48:23.884Z,41.90
2023-05-20T11:50:50.600Z,41.22
2023-05-20T11:53:21.679Z,41.48
2023-05-20T11:55:56.657Z,41.28
2023-05-20T11:58:24.029Z,41.27
2023-05-20T12:00:56.795Z,41.15
2023-05-20T12:03:26.257Z,39.24
2023-05-20T12:05:53.921Z,39.65
2023-05-20T12:08:20.472Z,40.61
2023-05-20T12:10:47.294Z,40.96
2023-05-20T12:13:13.836Z,40.95
2023-05-20T12:15:41.128Z,39.85
2023-05-20T12:18:08.047Z,41.23
2023-05-20T12:20:35.116Z,41.24
2023-05-20T12:23:02.207Z,42.19
2023-05-20T12:25:29.076Z,42.03
2023-05-20T12:27:56.237Z,41.71
2023-05-20T12:30:24.170Z,42.56
2023-05-20T12:32:52.090Z,42.37
2023-05-20T12:35:26.517Z,42.98
2023-05-20T12:37:53.394Z,43.49
2023-05-20T12:40:20.062Z,43.88
2023-05-20T12:42:46.570Z,44.04
2023-05-20T12:45:13.449Z,44.14
2023-05-20T12:47:40.092Z,42.75
2023-05-20T12:50:07.093Z,43.88
2023-05-20T12:52:33.684Z,42.44
2023-05-20T12:55:00.285Z,42.05
2023-05-20T12:57:27.129Z,40.62
2023-05-20T12:59:53.824Z,39.18
2023-05-20T13:02:21.053Z,39.05
2023-05-20T13:04:47.822Z,39.74
2023-05-20T13:07:14.507Z,41.02
2023-05-20T13:09:41.123Z,41.08
2023-05-20T13:12:08.073Z,42.43
2023-05-20T13:14:34.685Z,42.21
2023-05-20T13:17:01.307Z,42.33
2023-05-20T13:19:28.168Z,41.18
2023-05-20T13:21:54.802Z,41.92
2023-05-20T13:24:21.859Z,42.06
2023-05-20T13:26:48.529Z,41.92
2023-05-20T13:29:15.179Z,42.54
2023-05-20T13:31:42.200Z,41.15
2023-05-20T13:34:08.910Z,42.33
2023-05-20T13:36:35.567Z,42.79
2023-05-20T13:39:02.823Z,43.30
2023-05-20T13:41:30.672Z,42.81
2023-05-20T13:43:57.300Z,41.62
2023-05-20T13:46:24.272Z,42.04
2023-05-20T13:48:50.882Z,41.57
2023-05-20T13:51:17.658Z,41.78
2023-05-20T13:53:44.232Z,41.65
2023-05-20T13:56:11.132Z,41.95
2023-05-20T13:58:38.368Z,40.43
2023-05-20T14:01:06.191Z,40.38
2023-05-20T14:03:37.451Z,40.78
2023-05-20T14:06:04.462Z,41.21
2023-05-20T14:08:31.349Z,41.11
2023-05-20T14:10:57.952Z,39.20
2023-05-20T14:13:25.521Z,39.34
2023-05-20T14:15:54.539Z,38.32
2023-05-20T14:18:21.511Z,37.55
2023-05-20T14:20:48.164Z,38.22
2023-05-20T14:23:14.761Z,38.08
2023-05-20T14:25:41.463Z,37.44
2023-05-20T14:28:08.052Z,38.35
2023-05-20T14:30:35.045Z,38.10
2023-05-20T14:33:01.870Z,38.05
2023-05-20T14:35:28.451Z,37.68
2023-05-20T14:37:55.090Z,38.43
2023-05-20T14:40:21.940Z,37.78
2023-05-20T14:42:48.518Z,38.24
2023-05-20T14:45:15.159Z,37.51
2023-05-20T14:47:41.796Z,37.64
2023-05-20T14:50:08.709Z,38.32
2023-05-20T14:52:35.368Z,39.08
2023-05-20T14:55:01.888Z,39.45
2023-05-20T14:57:28.549Z,40.48
2023-05-20T14:59:55.511Z,40.57
2023-05-20T15:02:22.328Z,40.72
2023-05-20T15:04:48.984Z,40.95
2023-05-20T15:07:15.604Z,41.21
2023-05-20T15:09:43.735Z,40.25
2023-05-20T15:12:11.280Z,40.09
2023-05-20T15:14:38.087Z,39.34
2023-05-20T15:17:05.265Z,39.30
2023-05-20T15:19:32.804Z,39.72
2023-05-20T15:21:59.992Z,39.57
2023-05-20T15:24:26.668Z,39.35
2023-05-20T15:26:54.222Z,40.09
2023-05-20T15:29:21.614Z,39.85
2023-05-20T15:31:48.210Z,39.18
2023-05-20T15:34:15.029Z,39.43
2023-05-20T15:36:41.641Z,39.38
2023-05-20T15:39:08.263Z,39.71
2023-05-20T15:41:34.855Z,38.91
2023-05-20T15:44:02.312Z,38.83
2023-05-20T15:46:29.027Z,40.07
2023-05-20T15:48:57.894Z,40.16
2023-05-20T15:51:24.528Z,39.95
2023-05-20T15:53:51.047Z,40.07
2023-05-20T15:56:17.711Z,39.54
2023-05-20T15:58:44.474Z,39.69
2023-05-20T16:01:11.204Z,39.83
2023-05-20T16:03:37.886Z,39.58
2023-05-20T16:06:04.710Z,40.13
2023-05-20T16:08:31.463Z,40.10
2023-05-20T16:10:58.188Z,39.94
2023-05-20T16:13:24.756Z,40.65
2023-05-20T16:15:51.933Z,41.04
2023-05-20T16:18:19.040Z,41.08
2023-05-20T16:20:45.595Z,40.55
2023-05-20T16:23:12.282Z,40.38
2023-05-20T16:25:38.896Z,40.18
2023-05-20T16:28:06.794Z,41.20
2023-05-20T16:30:35.197Z,41.68
2023-05-20T16:33:02.104Z,40.52
2023-05-20T16:35:28.853Z,40.35
2023-05-20T16:37:55.409Z,40.62
2023-05-20T16:40:22.383Z,40.06
2023-05-20T16:42:48.997Z,40.22
2023-05-20T16:45:15.728Z,40.35
2023-05-20T16:47:42.366Z,40.62
2023-05-20T16:50:09.845Z,40.93
2023-05-20T16:52:37.835Z,41.04
2023-05-20T16:55:07.921Z,41.51
2023-05-20T16:57:35.562Z,42.00
2023-05-20T17:00:06.830Z,41.83
2023-05-20T17:02:33.503Z,42.29
2023-05-20T17:05:00.016Z,42.46
2023-05-20T17:07:26.710Z,42.18
2023-05-20T17:09:53.337Z,42.49
2023-05-20T17:12:19.852Z,42.36
2023-05-20T17:14:46.541Z,42.64
2023-05-20T17:17:14.929Z,42.38
2023-05-20T17:19:41.933Z,42.60
2023-05-20T17:22:08.542Z,43.34
2023-05-20T17:24:35.791Z,43.23
2023-05-20T17:27:03.698Z,43.21
2023-05-20T17:29:30.506Z,43.36
2023-05-20T17:31:57.379Z,43.08
2023-05-20T17:34:24.009Z,43.17
2023-05-20T17:36:50.917Z,43.10
2023-05-20T17:39:17.510Z,43.75
2023-05-20T17:41:44.434Z,43.85
2023-05-20T17:44:11.270Z,43.51
2023-05-20T17:46:38.175Z,43.48
2023-05-20T17:49:04.780Z,44.07
2023-05-20T17:51:31.858Z,44.23
2023-05-20T17:53:58.472Z,45.11
2023-05-20T17:56:26.445Z,44.60
2023-05-20T17:58:54.240Z,44.98
2023-05-20T18:01:23.407Z,44.38
2023-05-20T18:03:50.259Z,45.06
2023-05-20T18:06:18.028Z,45.94
2023-05-20T18:08:44.702Z,46.36
2023-05-20T18:11:11.477Z,46.64
2023-05-20T18:13:38.136Z,46.98
2023-05-20T18:16:05.229Z,47.54
2023-05-20T18:18:31.824Z,47.77
2023-05-20T18:20:58.395Z,47.66
2023-05-20T18:23:24.930Z,48.31
2023-05-20T18:25:51.616Z,48.31
2023-05-20T18:28:18.198Z,48.40
2023-05-20T18:30:44.748Z,48.59
2023-05-20T18:33:11.450Z,48.39
2023-05-20T18:35:39.316Z,49.46
2023-05-20T18:38:05.973Z,49.28
2023-05-20T18:40:32.576Z,49.38
2023-05-20T18:42:59.307Z,50.18
2023-05-20T18:45:26.256Z,49.94
2023-05-20T18:47:57.585Z,49.48
2023-05-20T18:50:24.172Z,50.14
2023-05-20T18:52:50.705Z,49.81
2023-05-20T18:55:17.545Z,49.47
2023-05-20T18:57:44.548Z,49.09
2023-05-20T19:00:12.113Z,49.79
2023-05-20T19:02:40.140Z,49.77
2023-05-20T19:05:08.460Z,50.57
2023-05-20T19:07:35.885Z,50.78
2023-05-20T19:10:03.728Z,51.43
2023-05-20T19:12:30.449Z,51.59
2023-05-20T19:14:57.359Z,52.05
2023-05-20T19:17:24.152Z,51.95
2023-05-20T19:19:51.015Z,52.39
2023-05-20T19:22:17.601Z,52.14
2023-05-20T19:24:44.202Z,52.29
2023-05-20T19:27:11.127Z,53.10
2023-05-20T19:29:37.855Z,53.44
2023-05-20T19:32:04.692Z,53.42
2023-05-20T19:34:31.285Z,53.52
2023-05-20T19:36:57.980Z,53.14
2023-05-20T19:39:24.633Z,53.69
2023-05-20T19:41:51.208Z,53.13
2023-05-20T19:44:18.889Z,54.09
2023-05-20T19:46:45.437Z,54.58
2023-05-20T19:49:12.039Z,55.23
2023-05-20T19:51:38.659Z,55.13
2023-05-20T19:54:05.226Z,55.21
2023-05-20T19:56:31.689Z,55.85
2023-05-20T19:59:01.547Z,55.92
2023-05-20T20:01:29.477Z,56.44
2023-05-20T20:03:56.238Z,56.42
2023-05-20T20:06:22.773Z,57.32
2023-05-20T20:08:49.299Z,57.65
2023-05-20T20:11:16.225Z,58.15
2023-05-20T20:13:42.754Z,58.42
2023-05-20T20:16:09.282Z,58.41
2023-05-20T20:18:35.965Z,59.50
2023-05-20T20:21:05.916Z,59.27
2023-05-20T20:23:32.987Z,59.70
2023-05-20T20:25:59.635Z,59.82
2023-05-20T20:28:26.262Z,59.92
2023-05-20T20:30:52.862Z,60.14
2023-05-20T20:33:19.695Z,60.73
2023-05-20T20:35:46.810Z,60.21
2023-05-20T20:38:13.527Z,60.91
2023-05-20T20:40:42.349Z,61.51
2023-05-20T20:43:10.990Z,61.95
2023-05-20T20:45:37.749Z,61.90
2023-05-20T20:48:05.486Z,62.41
2023-05-20T20:50:33.186Z,62.98
2023-05-20T20:52:59.766Z,63.16
2023-05-20T20:55:26.390Z,63.75
2023-05-20T20:57:52.958Z,63.42
2023-05-20T21:00:23.131Z,63.56
2023-05-20T21:02:50.080Z,64.09
2023-05-20T21:05:17.529Z,63.90
2023-05-20T21:07:49.666Z,64.18
2023-05-20T21:10:17.549Z,64.92
2023-05-20T21:12:44.099Z,64.87
2023-05-20T21:15:12.593Z,64.68
2023-05-20T21:17:39.228Z,64.86
2023-05-20T21:20:07.293Z,65.91
2023-05-20T21:22:33.852Z,65.10
2023-05-20T21:25:00.430Z,65.27
2023-05-20T21:27:27.072Z,65.85
2023-05-20T21:29:53.554Z,65.74
2023-05-20T21:32:20.143Z,66.91
2023-05-20T21:34:46.567Z,66.98
2023-05-20T21:37:13.072Z,66.76
2023-05-20T21:39:39.626Z,66.93
2023-05-20T21:42:06.762Z,67.25
2023-05-20T21:44:33.583Z,66.97
2023-05-20T21:47:00.214Z,67.46
2023-05-20T21:49:27.716Z,67.71
2023-05-20T21:51:54.210Z,67.50
2023-05-20T21:54:20.733Z,68.20
2023-05-20T21:56:47.194Z,68.17
2023-05-20T21:59:14.689Z,68.36
2023-05-20T22:17:36.641Z,70.23
2023-05-20T22:20:10.714Z,69.60
2023-05-20T22:22:39.156Z,69.43
2023-05-20T22:25:09.010Z,68.65
2023-05-20T22:27:35.629Z,68.98
2023-05-20T22:30:02.424Z,68.11
2023-05-20T22:32:29.016Z,68.54
2023-05-20T22:34:58.414Z,69.07
2023-05-20T22:37:28.749Z,68.59
2023-05-20T22:39:55.986Z,68.81
2023-05-20T22:42:22.706Z,69.32
2023-05-20T22:44:49.725Z,69.49
2023-05-20T22:47:16.492Z,69.91
2023-05-20T22:49:43.087Z,69.29
2023-05-20T22:52:09.579Z,69.21
2023-05-20T22:54:36.247Z,70.17
2023-05-20T22:57:03.186Z,70.13
2023-05-20T22:59:32.897Z,70.48
2023-05-20T23:01:59.532Z,69.83
2023-05-20T23:04:26.136Z,70.44
2023-05-20T23:06:53.917Z,69.69
2023-05-20T23:09:21.071Z,69.98
2023-05-20T23:11:47.710Z,70.06
2023-05-20T23:14:14.229Z,70.23
2023-05-20T23:16:42.109Z,70.99
2023-05-20T23:19:09.027Z,70.40
2023-05-20T23:21:37.299Z,70.42
2023-05-20T23:24:04.529Z,70.01
2023-05-20T23:26:31.487Z,69.42
2023-05-20T23:28:58.036Z,70.28
2023-05-20T23:31:27.044Z,70.67
2023-05-20T23:33:54.237Z,70.16
2023-05-20T23:36:20.838Z,71.02
2023-05-20T23:38:47.273Z,70.71
2023-05-20T23:41:13.772Z,70.70
2023-05-20T23:43:40.244Z,70.38
2023-05-20T23:46:08.563Z,70.84
2023-05-20T23:48:36.036Z,70.78
2023-05-20T23:51:03.036Z,70.93
2023-05-20T23:53:29.953Z,71.46
2023-05-20T23:55:56.493Z,71.56
2023-05-20T23:58:23.865Z,71.79
